createdAt,value
2017-08-22T00:00:18.112Z,20.82
2017-08-22T00:00:50.375Z,20.83
2017-08-22T00:01:22.631Z,20.82
2017-08-22T00:01:54.904Z,20.76
2017-08-22T00:02:27.178Z,20.76
2017-08-22T00:02:59.453Z,20.82
2017-08-22T00:03:31.735Z,20.82
2017-08-22T00:04:04.027Z,20.85
2017-08-22T00:04:36.376Z,20.85
2017-08-22T00:05:08.684Z,20.82
2017-08-22T00:05:40.982Z,20.85
2017-08-22T00:06:13.261Z,20.88
2017-08-22T00:06:45.560Z,20.81
2017-08-22T00:07:17.838Z,20.81
2017-08-22T00:07:50.122Z,20.81
2017-08-22T00:08:22.406Z,20.82
2017-08-22T00:08:54.703Z,20.75
2017-08-22T00:09:26.991Z,20.78
2017-08-22T00:09:59.314Z,20.75
2017-08-22T00:10:31.627Z,20.81
2017-08-22T00:11:03.924Z,20.81
2017-08-22T00:11:36.214Z,20.82
2017-08-22T00:12:08.521Z,20.79
2017-08-22T00:12:40.819Z,20.75
2017-08-22T00:13:13.106Z,20.78
2017-08-22T00:13:45.409Z,20.74
2017-08-22T00:14:17.711Z,20.72
2017-08-22T00:14:49.994Z,20.79
2017-08-22T00:15:22.301Z,20.67
2017-08-22T00:15:54.610Z,20.71
2017-08-22T00:16:26.917Z,20.68
2017-08-22T00:16:59.203Z,20.75
2017-08-22T00:17:31.506Z,20.75
2017-08-22T00:18:03.795Z,20.76
2017-08-22T00:18:36.092Z,20.66
2017-08-22T00:19:08.402Z,20.76
2017-08-22T00:19:40.711Z,20.67
2017-08-22T00:20:13.006Z,20.68
2017-08-22T00:20:45.293Z,20.71
2017-08-22T00:21:17.604Z,20.68
2017-08-22T00:21:49.897Z,20.75
2017-08-22T00:22:22.212Z,20.71
2017-08-22T00:22:54.525Z,20.74
2017-08-22T00:23:26.792Z,20.64
2017-08-22T00:23:59.132Z,20.72
2017-08-22T00:24:31.397Z,20.71
2017-08-22T00:25:03.720Z,20.66
2017-08-22T00:25:36.069Z,20.67
2017-08-22T00:26:08.318Z,20.72
2017-08-22T00:26:40.594Z,20.71
2017-08-22T00:27:12.873Z,20.68
2017-08-22T00:27:45.133Z,20.67
2017-08-22T00:28:18.309Z,20.61
2017-08-22T00:28:50.583Z,20.66
2017-08-22T00:29:23.318Z,20.61
2017-08-22T00:29:55.590Z,20.63
2017-08-22T00:30:27.853Z,20.67
2017-08-22T00:31:00.088Z,20.63
2017-08-22T00:31:32.347Z,20.61
2017-08-22T00:32:04.627Z,20.6
2017-08-22T00:32:36.958Z,20.51
2017-08-22T00:33:09.242Z,20.6
2017-08-22T00:33:41.498Z,20.58
2017-08-22T00:34:13.835Z,20.57
2017-08-22T00:34:46.116Z,20.57
2017-08-22T00:35:18.398Z,20.56
2017-08-22T00:35:50.654Z,20.6
2017-08-22T00:36:22.933Z,20.61
2017-08-22T00:36:55.195Z,20.54
2017-08-22T00:37:27.449Z,20.56
2017-08-22T00:37:59.713Z,20.6
2017-08-22T00:38:31.957Z,20.53
2017-08-22T00:39:04.221Z,20.58
2017-08-22T00:39:36.468Z,20.6
2017-08-22T00:40:08.729Z,20.6
2017-08-22T00:40:40.995Z,20.63
2017-08-22T00:41:13.263Z,20.57
2017-08-22T00:41:45.535Z,20.56
2017-08-22T00:42:17.791Z,20.57
2017-08-22T00:42:50.056Z,20.49
2017-08-22T00:43:22.319Z,20.6
2017-08-22T00:43:54.589Z,20.54
2017-08-22T00:44:26.845Z,20.54
2017-08-22T00:44:59.160Z,20.49
2017-08-22T00:45:31.425Z,20.49
2017-08-22T00:46:03.690Z,20.51
2017-08-22T00:46:36.043Z,20.42
2017-08-22T00:47:08.442Z,20.48
2017-08-22T00:47:40.699Z,20.49
2017-08-22T00:48:12.973Z,20.49
2017-08-22T00:48:45.240Z,20.54
2017-08-22T00:49:17.522Z,20.46
2017-08-22T00:49:49.803Z,20.46
2017-08-22T00:50:22.064Z,20.46
2017-08-22T00:50:54.316Z,20.51
2017-08-22T00:51:26.578Z,20.53
2017-08-22T00:51:58.821Z,20.49
2017-08-22T00:52:31.118Z,20.44
2017-08-22T00:55:13.470Z,20.38
2017-08-22T00:55:45.731Z,20.46
2017-08-22T00:56:17.962Z,20.38
2017-08-22T00:56:50.228Z,20.49
2017-08-22T00:57:22.479Z,20.37
2017-08-22T00:57:54.749Z,20.35
2017-08-22T00:58:27.018Z,20.44
2017-08-22T00:58:59.314Z,20.46
2017-08-22T00:59:31.556Z,20.41
2017-08-22T01:00:03.814Z,20.34
2017-08-22T01:00:36.095Z,20.34
2017-08-22T01:01:08.339Z,20.35
2017-08-22T01:01:40.605Z,20.41
2017-08-22T01:02:12.982Z,20.37
2017-08-22T01:02:45.242Z,20.46
2017-08-22T01:03:17.491Z,20.46
2017-08-22T01:03:49.801Z,20.41
2017-08-22T01:04:22.069Z,20.44
2017-08-22T01:04:54.339Z,20.38
2017-08-22T01:05:26.667Z,20.4
2017-08-22T01:05:58.949Z,20.38
2017-08-22T01:06:31.226Z,20.48
2017-08-22T01:07:03.559Z,20.44
2017-08-22T01:07:35.833Z,20.42
2017-08-22T01:08:08.085Z,20.44
2017-08-22T01:08:40.337Z,20.41
2017-08-22T01:09:12.730Z,20.4
2017-08-22T01:09:45.017Z,20.4
2017-08-22T01:10:17.274Z,20.35
2017-08-22T01:10:49.532Z,20.32
2017-08-22T01:11:21.811Z,20.38
2017-08-22T01:11:54.099Z,20.38
2017-08-22T01:12:26.366Z,20.38
2017-08-22T01:12:58.653Z,20.38
2017-08-22T01:13:30.963Z,20.35
2017-08-22T01:14:03.262Z,20.37
2017-08-22T01:14:35.560Z,20.37
2017-08-22T01:15:07.870Z,20.27
2017-08-22T01:15:40.186Z,20.4
2017-08-22T01:16:12.480Z,20.38
2017-08-22T01:16:44.778Z,20.35
2017-08-22T01:17:17.061Z,20.27
2017-08-22T01:17:49.355Z,20.27
2017-08-22T01:18:21.658Z,20.35
2017-08-22T01:18:53.954Z,20.26
2017-08-22T01:19:26.264Z,20.34
2017-08-22T01:19:58.575Z,20.35
2017-08-22T01:20:30.878Z,20.25
2017-08-22T01:21:03.179Z,20.27
2017-08-22T01:21:35.478Z,20.22
2017-08-22T01:22:07.780Z,20.26
2017-08-22T01:22:40.080Z,20.22
2017-08-22T01:23:12.442Z,20.25
2017-08-22T01:23:44.707Z,20.23
2017-08-22T01:24:17.014Z,20.22
2017-08-22T01:24:49.260Z,20.26
2017-08-22T01:25:21.515Z,20.23
2017-08-22T01:25:53.765Z,20.23
2017-08-22T01:26:26.150Z,20.29
2017-08-22T01:26:58.405Z,20.27
2017-08-22T01:27:30.670Z,20.3
2017-08-22T01:28:02.946Z,20.26
2017-08-22T01:28:35.213Z,20.26
2017-08-22T01:29:07.591Z,20.27
2017-08-22T01:29:39.842Z,20.27
2017-08-22T01:30:12.098Z,20.29
2017-08-22T01:30:44.362Z,20.25
2017-08-22T01:31:16.661Z,20.29
2017-08-22T01:31:49.005Z,20.16
2017-08-22T01:32:21.290Z,20.29
2017-08-22T01:32:53.557Z,20.26
2017-08-22T01:33:25.854Z,20.26
2017-08-22T01:33:58.154Z,20.29
2017-08-22T01:34:30.449Z,20.3
2017-08-22T01:35:02.738Z,20.16
2017-08-22T01:35:35.045Z,20.25
2017-08-22T01:36:07.336Z,20.18
2017-08-22T01:36:39.657Z,20.25
2017-08-22T01:37:11.948Z,20.26
2017-08-22T01:37:44.245Z,20.26
2017-08-22T01:38:16.553Z,20.19
2017-08-22T01:38:48.857Z,20.19
2017-08-22T01:39:21.147Z,20.22
2017-08-22T01:39:53.446Z,20.2
2017-08-22T01:40:25.741Z,20.27
2017-08-22T01:40:58.041Z,20.16
2017-08-22T01:41:30.326Z,20.12
2017-08-22T01:42:02.635Z,20.15
2017-08-22T01:42:34.927Z,20.16
2017-08-22T01:43:07.220Z,20.15
2017-08-22T01:43:39.452Z,20.2
2017-08-22T01:44:11.717Z,20.15
2017-08-22T01:44:43.984Z,20.23
2017-08-22T01:45:16.251Z,20.15
2017-08-22T01:45:48.511Z,20.2
2017-08-22T01:46:20.771Z,20.2
2017-08-22T01:46:53.196Z,20.18
2017-08-22T01:47:25.459Z,20.2
2017-08-22T01:47:57.724Z,20.15
2017-08-22T01:48:29.989Z,20.15
2017-08-22T01:49:02.309Z,20.12
2017-08-22T01:49:34.563Z,20.15
2017-08-22T01:50:06.858Z,20.12
2017-08-22T01:50:39.124Z,20.16
2017-08-22T01:51:11.392Z,20.19
2017-08-22T01:51:43.669Z,20.15
2017-08-22T01:52:15.916Z,20.2
2017-08-22T01:52:48.178Z,20.18
2017-08-22T01:53:20.460Z,20.26
2017-08-22T01:53:52.761Z,20.19
2017-08-22T01:54:25.064Z,20.08
2017-08-22T01:54:57.357Z,20.08
2017-08-22T01:55:29.634Z,20.15
2017-08-22T01:56:01.944Z,20.2
2017-08-22T01:56:34.243Z,20.19
2017-08-22T01:57:06.536Z,20.08
2017-08-22T01:57:38.840Z,20.15
2017-08-22T01:58:11.146Z,20.12
2017-08-22T01:58:43.427Z,20.18
2017-08-22T01:59:15.726Z,20.16
2017-08-22T01:59:48.034Z,20.12
2017-08-22T02:00:20.309Z,20.2
2017-08-22T02:00:52.612Z,20.05
2017-08-22T02:01:24.914Z,20.12
2017-08-22T02:01:57.213Z,20.16
2017-08-22T02:02:29.510Z,20.11
2017-08-22T02:03:01.816Z,20.07
2017-08-22T02:03:34.106Z,20.11
2017-08-22T02:04:06.404Z,20.07
2017-08-22T02:04:38.711Z,20.08
2017-08-22T02:05:11.018Z,20.12
2017-08-22T02:05:43.304Z,20.11
2017-08-22T02:06:15.601Z,20.08
2017-08-22T02:06:47.894Z,20.11
2017-08-22T02:07:20.184Z,20.08
2017-08-22T02:07:52.480Z,20.04
2017-08-22T02:08:24.769Z,20.08
2017-08-22T02:08:57.068Z,20.08
2017-08-22T02:09:29.374Z,20.07
2017-08-22T02:10:01.679Z,20.07
2017-08-22T02:10:33.968Z,20.1
2017-08-22T02:11:06.290Z,20.05
2017-08-22T02:11:38.588Z,20.01
2017-08-22T02:12:10.909Z,20.04
2017-08-22T02:12:43.202Z,20.02
2017-08-22T02:13:15.506Z,20.01
2017-08-22T02:13:47.795Z,20.01
2017-08-22T02:14:20.089Z,20.05
2017-08-22T02:14:52.389Z,20.02
2017-08-22T02:15:24.688Z,20.07
2017-08-22T02:15:56.996Z,20.04
2017-08-22T02:16:29.309Z,20.1
2017-08-22T02:17:01.610Z,20.02
2017-08-22T02:17:33.911Z,20.08
2017-08-22T02:18:06.226Z,20.07
2017-08-22T02:18:38.526Z,20.04
2017-08-22T02:19:10.818Z,20.04
2017-08-22T02:19:43.111Z,20.11
2017-08-22T02:20:15.407Z,20.02
2017-08-22T02:20:47.704Z,20.08
2017-08-22T02:21:19.992Z,20.05
2017-08-22T02:21:52.314Z,20.04
2017-08-22T02:22:24.610Z,20.04
2017-08-22T02:22:56.904Z,20.07
2017-08-22T02:23:29.219Z,20
2017-08-22T02:24:01.528Z,20.1
2017-08-22T02:24:33.816Z,20.07
2017-08-22T02:25:06.102Z,20.05
2017-08-22T02:25:38.389Z,19.97
2017-08-22T02:26:10.680Z,19.97
2017-08-22T02:26:42.970Z,19.93
2017-08-22T02:27:15.267Z,19.95
2017-08-22T02:27:47.569Z,19.98
2017-08-22T02:28:19.865Z,20
2017-08-22T02:28:52.156Z,20.04
2017-08-22T02:29:24.466Z,19.93
2017-08-22T02:29:56.789Z,19.89
2017-08-22T02:30:29.104Z,19.87
2017-08-22T02:31:01.401Z,20.02
2017-08-22T02:31:33.705Z,19.92
2017-08-22T02:32:06.008Z,19.93
2017-08-22T02:32:38.322Z,19.92
2017-08-22T02:33:10.618Z,19.95
2017-08-22T02:33:42.916Z,19.97
2017-08-22T02:34:15.221Z,19.98
2017-08-22T02:34:47.525Z,19.89
2017-08-22T02:35:19.809Z,19.86
2017-08-22T02:35:52.089Z,19.87
2017-08-22T02:36:24.377Z,19.93
2017-08-22T02:36:56.672Z,19.93
2017-08-22T02:37:28.959Z,19.85
2017-08-22T02:38:01.258Z,19.89
2017-08-22T02:38:33.579Z,19.93
2017-08-22T02:39:05.892Z,19.92
2017-08-22T02:39:38.191Z,19.95
2017-08-22T02:40:10.481Z,19.85
2017-08-22T02:40:42.780Z,19.98
2017-08-22T02:41:15.071Z,19.89
2017-08-22T02:41:47.369Z,19.87
2017-08-22T02:42:19.651Z,19.86
2017-08-22T02:42:51.946Z,19.92
2017-08-22T02:43:24.239Z,19.93
2017-08-22T02:43:56.546Z,19.86
2017-08-22T02:44:28.864Z,19.93
2017-08-22T02:45:01.169Z,19.85
2017-08-22T02:45:33.472Z,19.97
2017-08-22T02:46:05.772Z,19.93
2017-08-22T02:46:38.075Z,19.95
2017-08-22T02:47:10.397Z,19.95
2017-08-22T02:47:42.704Z,19.9
2017-08-22T02:48:15.019Z,19.86
2017-08-22T02:48:47.324Z,19.87
2017-08-22T02:49:19.622Z,19.87
2017-08-22T02:49:51.925Z,19.87
2017-08-22T02:50:24.238Z,19.9
2017-08-22T02:50:56.533Z,19.85
2017-08-22T02:51:28.831Z,19.9
2017-08-22T02:52:01.135Z,19.87
2017-08-22T02:52:33.438Z,19.82
2017-08-22T02:53:05.798Z,19.87
2017-08-22T02:53:38.085Z,19.89
2017-08-22T02:54:10.358Z,19.87
2017-08-22T02:54:42.633Z,19.85
2017-08-22T02:55:14.899Z,19.85
2017-08-22T02:55:47.163Z,19.79
2017-08-22T02:56:19.439Z,19.89
2017-08-22T02:56:51.717Z,19.8
2017-08-22T02:57:23.965Z,19.83
2017-08-22T02:57:56.218Z,19.83
2017-08-22T02:58:28.481Z,19.9
2017-08-22T02:59:00.746Z,19.86
2017-08-22T02:59:33.004Z,19.8
2017-08-22T03:00:05.408Z,19.83
2017-08-22T03:00:37.681Z,19.87
2017-08-22T03:01:09.953Z,19.86
2017-08-22T03:01:42.230Z,19.86
2017-08-22T03:02:14.511Z,19.78
2017-08-22T03:02:46.791Z,19.86
2017-08-22T03:03:19.070Z,19.83
2017-08-22T03:03:51.395Z,19.83
2017-08-22T03:04:23.699Z,19.8
2017-08-22T03:04:55.993Z,19.86
2017-08-22T03:05:28.298Z,19.8
2017-08-22T03:06:00.616Z,19.74
2017-08-22T03:06:32.924Z,19.8
2017-08-22T03:07:05.219Z,19.8
2017-08-22T03:07:37.534Z,19.78
2017-08-22T03:08:09.843Z,19.82
2017-08-22T03:08:42.118Z,19.83
2017-08-22T03:09:14.422Z,19.82
2017-08-22T03:09:46.720Z,19.74
2017-08-22T03:10:19.013Z,19.83
2017-08-22T03:10:51.330Z,19.75
2017-08-22T03:11:23.632Z,19.8
2017-08-22T03:11:55.917Z,19.82
2017-08-22T03:12:28.209Z,19.74
2017-08-22T03:13:00.503Z,19.8
2017-08-22T03:13:32.769Z,19.78
2017-08-22T03:14:05.028Z,19.83
2017-08-22T03:14:37.281Z,19.83
2017-08-22T03:15:09.560Z,19.83
2017-08-22T03:15:41.829Z,19.65
2017-08-22T03:16:14.100Z,19.85
2017-08-22T03:16:46.450Z,19.83
2017-08-22T03:17:18.712Z,19.86
2017-08-22T03:17:50.998Z,19.75
2017-08-22T03:18:23.257Z,19.86
2017-08-22T03:18:55.533Z,19.79
2017-08-22T03:19:27.778Z,19.79
2017-08-22T03:20:00.033Z,19.8
2017-08-22T03:20:32.289Z,19.8
2017-08-22T03:21:04.559Z,19.86
2017-08-22T03:21:36.826Z,19.75
2017-08-22T03:22:09.087Z,19.78
2017-08-22T03:22:41.342Z,19.75
2017-08-22T03:23:13.616Z,19.8
2017-08-22T03:23:45.923Z,19.83
2017-08-22T03:24:18.228Z,19.82
2017-08-22T03:24:50.545Z,19.74
2017-08-22T03:25:22.846Z,19.82
2017-08-22T03:25:55.128Z,19.74
2017-08-22T03:26:27.411Z,19.78
2017-08-22T03:26:59.713Z,19.74
2017-08-22T03:27:32.016Z,19.79
2017-08-22T03:28:04.301Z,19.82
2017-08-22T03:28:36.581Z,19.74
2017-08-22T03:29:08.868Z,19.74
2017-08-22T03:29:41.162Z,19.8
2017-08-22T03:30:13.472Z,19.71
2017-08-22T03:30:45.779Z,19.79
2017-08-22T03:31:18.112Z,19.79
2017-08-22T03:31:50.429Z,19.78
2017-08-22T03:32:22.725Z,19.71
2017-08-22T03:32:55.021Z,19.75
2017-08-22T03:33:27.296Z,19.75
2017-08-22T03:33:59.553Z,19.71
2017-08-22T03:34:31.818Z,19.74
2017-08-22T03:35:04.089Z,19.79
2017-08-22T03:35:36.443Z,19.7
2017-08-22T03:36:08.686Z,19.74
2017-08-22T03:36:40.962Z,19.72
2017-08-22T03:37:13.227Z,19.65
2017-08-22T03:37:45.552Z,19.71
2017-08-22T03:38:17.813Z,19.7
2017-08-22T03:38:50.073Z,19.67
2017-08-22T03:39:22.322Z,19.72
2017-08-22T03:39:54.586Z,19.64
2017-08-22T03:40:26.852Z,19.7
2017-08-22T03:40:59.851Z,19.68
2017-08-22T03:41:32.103Z,19.78
2017-08-22T03:42:04.379Z,19.65
2017-08-22T03:42:36.659Z,19.71
2017-08-22T03:43:09.064Z,19.71
2017-08-22T03:43:41.324Z,19.68
2017-08-22T03:44:13.559Z,19.75
2017-08-22T03:44:45.896Z,19.67
2017-08-22T03:45:18.142Z,19.75
2017-08-22T03:45:50.410Z,19.67
2017-08-22T03:46:22.685Z,19.72
2017-08-22T03:46:54.956Z,19.67
2017-08-22T03:47:27.248Z,19.65
2017-08-22T03:47:59.539Z,19.64
2017-08-22T03:48:31.788Z,19.64
2017-08-22T03:49:04.079Z,19.71
2017-08-22T03:49:36.353Z,19.65
2017-08-22T03:50:08.603Z,19.64
2017-08-22T03:50:40.863Z,19.75
2017-08-22T03:51:13.108Z,19.68
2017-08-22T03:51:45.394Z,19.68
2017-08-22T03:52:17.668Z,19.67
2017-08-22T03:52:50.061Z,19.65
2017-08-22T03:53:22.337Z,19.7
2017-08-22T03:53:54.696Z,19.65
2017-08-22T03:54:26.971Z,19.67
2017-08-22T03:54:59.226Z,19.65
2017-08-22T03:55:31.547Z,19.7
2017-08-22T03:56:03.808Z,19.65
2017-08-22T03:56:36.086Z,19.68
2017-08-22T03:57:08.344Z,19.64
2017-08-22T03:57:40.716Z,19.67
2017-08-22T03:58:12.962Z,19.63
2017-08-22T03:58:45.215Z,19.65
2017-08-22T03:59:17.515Z,19.71
2017-08-22T03:59:49.798Z,19.64
2017-08-22T04:00:22.059Z,19.65
2017-08-22T04:00:54.323Z,19.67
2017-08-22T04:01:26.615Z,19.65
2017-08-22T04:01:58.886Z,19.65
2017-08-22T04:02:31.137Z,19.67
2017-08-22T04:03:03.420Z,19.67
2017-08-22T04:03:35.729Z,19.67
2017-08-22T04:04:08.018Z,19.64
2017-08-22T04:04:40.303Z,19.64
2017-08-22T04:05:12.606Z,19.63
2017-08-22T04:05:44.907Z,19.68
2017-08-22T04:06:17.219Z,19.64
2017-08-22T04:06:49.496Z,19.61
2017-08-22T04:07:21.793Z,19.68
2017-08-22T04:07:54.080Z,19.63
2017-08-22T04:08:26.381Z,19.61
2017-08-22T04:08:58.673Z,19.64
2017-08-22T04:09:30.977Z,19.61
2017-08-22T04:10:03.262Z,19.64
2017-08-22T04:10:35.581Z,19.65
2017-08-22T04:11:07.879Z,19.68
2017-08-22T04:11:40.183Z,19.61
2017-08-22T04:12:12.474Z,19.63
2017-08-22T04:12:44.784Z,19.64
2017-08-22T04:13:17.091Z,19.64
2017-08-22T04:13:49.391Z,19.64
2017-08-22T04:14:21.688Z,19.56
2017-08-22T04:14:53.995Z,19.65
2017-08-22T04:15:26.307Z,19.63
2017-08-22T04:15:58.614Z,19.61
2017-08-22T04:16:30.905Z,19.63
2017-08-22T04:17:03.216Z,19.64
2017-08-22T04:17:35.511Z,19.57
2017-08-22T04:18:07.803Z,19.61
2017-08-22T04:18:40.096Z,19.61
2017-08-22T04:19:12.391Z,19.63
2017-08-22T04:19:44.694Z,19.61
2017-08-22T04:20:16.993Z,19.61
2017-08-22T04:20:49.298Z,19.61
2017-08-22T04:21:21.604Z,19.64
2017-08-22T04:21:53.902Z,19.61
2017-08-22T04:22:26.181Z,19.63
2017-08-22T04:22:58.485Z,19.56
2017-08-22T04:23:30.756Z,19.61
2017-08-22T04:24:03.039Z,19.61
2017-08-22T04:24:35.297Z,19.61
2017-08-22T04:25:07.576Z,19.63
2017-08-22T04:25:39.827Z,19.63
2017-08-22T04:26:12.093Z,19.56
2017-08-22T04:26:44.350Z,19.61
2017-08-22T04:27:16.611Z,19.64
2017-08-22T04:27:48.862Z,19.56
2017-08-22T04:28:21.177Z,19.52
2017-08-22T04:28:53.449Z,19.61
2017-08-22T04:29:25.699Z,19.57
2017-08-22T04:29:57.969Z,19.6
2017-08-22T04:30:30.228Z,19.55
2017-08-22T04:31:02.491Z,19.55
2017-08-22T04:31:34.835Z,19.6
2017-08-22T04:32:07.104Z,19.49
2017-08-22T04:32:39.377Z,19.49
2017-08-22T04:33:11.669Z,19.53
2017-08-22T04:33:44.021Z,19.52
2017-08-22T04:34:16.308Z,19.53
2017-08-22T04:34:48.580Z,19.52
2017-08-22T04:35:20.877Z,19.6
2017-08-22T04:35:53.130Z,19.55
2017-08-22T04:36:25.525Z,19.6
2017-08-22T04:36:57.780Z,19.55
2017-08-22T04:37:30.030Z,19.57
2017-08-22T04:38:02.310Z,19.53
2017-08-22T04:38:34.583Z,19.57
2017-08-22T04:39:06.861Z,19.53
2017-08-22T04:39:39.166Z,19.5
2017-08-22T04:40:11.403Z,19.55
2017-08-22T04:40:43.649Z,19.6
2017-08-22T04:41:15.913Z,19.56
2017-08-22T04:41:48.185Z,19.56
2017-08-22T04:42:20.443Z,19.55
2017-08-22T04:42:52.718Z,19.49
2017-08-22T04:43:24.981Z,19.5
2017-08-22T04:43:57.257Z,19.52
2017-08-22T04:44:29.514Z,19.52
2017-08-22T04:45:01.771Z,19.55
2017-08-22T04:45:34.056Z,19.53
2017-08-22T04:46:06.330Z,19.49
2017-08-22T04:46:38.585Z,19.57
2017-08-22T04:47:10.840Z,19.5
2017-08-22T04:47:43.101Z,19.5
2017-08-22T04:48:15.374Z,19.55
2017-08-22T04:48:47.645Z,19.5
2017-08-22T04:49:19.892Z,19.56
2017-08-22T04:49:52.128Z,19.52
2017-08-22T04:50:24.406Z,19.52
2017-08-22T04:50:56.669Z,19.6
2017-08-22T04:51:28.915Z,19.53
2017-08-22T04:52:01.234Z,19.53
2017-08-22T04:52:33.489Z,19.52
2017-08-22T04:53:05.759Z,19.53
2017-08-22T04:53:38.044Z,19.53
2017-08-22T04:54:10.344Z,19.53
2017-08-22T04:54:42.670Z,19.49
2017-08-22T04:55:14.981Z,19.64
2017-08-22T04:55:47.274Z,19.6
2017-08-22T04:56:19.568Z,19.55
2017-08-22T04:56:51.867Z,19.6
2017-08-22T04:57:24.175Z,19.6
2017-08-22T04:57:56.471Z,19.52
2017-08-22T04:58:28.774Z,19.52
2017-08-22T04:59:01.080Z,19.64
2017-08-22T04:59:33.378Z,19.6
2017-08-22T05:00:05.683Z,19.61
2017-08-22T05:00:38.001Z,19.61
2017-08-22T05:01:10.312Z,19.61
2017-08-22T05:01:42.610Z,19.63
2017-08-22T05:02:14.895Z,19.63
2017-08-22T05:02:47.209Z,19.63
2017-08-22T05:03:19.498Z,19.65
2017-08-22T05:03:51.768Z,19.65
2017-08-22T05:04:24.026Z,19.63
2017-08-22T05:04:56.290Z,19.6
2017-08-22T05:05:29.009Z,19.64
2017-08-22T05:06:01.308Z,19.6
2017-08-22T05:06:33.586Z,19.65
2017-08-22T05:07:05.935Z,19.61
2017-08-22T05:07:38.197Z,19.67
2017-08-22T05:08:10.461Z,19.63
2017-08-22T05:08:42.720Z,19.64
2017-08-22T05:09:14.976Z,19.64
2017-08-22T05:09:47.268Z,19.61
2017-08-22T05:10:19.537Z,19.64
2017-08-22T05:10:52.480Z,19.64
2017-08-22T05:11:24.745Z,19.65
2017-08-22T05:11:56.996Z,19.64
2017-08-22T05:12:29.258Z,19.65
2017-08-22T05:13:01.579Z,19.67
2017-08-22T05:13:33.880Z,19.68
2017-08-22T05:14:06.177Z,19.68
2017-08-22T05:14:38.509Z,19.67
2017-08-22T05:15:10.829Z,19.67
2017-08-22T05:15:43.113Z,19.68
2017-08-22T05:16:15.419Z,19.65
2017-08-22T05:16:47.706Z,19.65
2017-08-22T05:17:20.010Z,19.65
2017-08-22T05:17:52.299Z,19.65
2017-08-22T05:18:24.599Z,19.64
2017-08-22T05:18:56.907Z,19.65
2017-08-22T05:19:29.204Z,19.64
2017-08-22T05:20:01.495Z,19.68
2017-08-22T05:20:33.806Z,19.63
2017-08-22T05:21:06.110Z,19.65
2017-08-22T05:21:38.404Z,19.79
2017-08-22T05:22:10.700Z,19.71
2017-08-22T05:22:42.989Z,19.75
2017-08-22T05:23:15.281Z,19.7
2017-08-22T05:23:47.602Z,19.75
2017-08-22T05:24:19.870Z,19.74
2017-08-22T05:24:52.244Z,19.65
2017-08-22T05:25:24.995Z,19.71
2017-08-22T05:25:57.278Z,19.72
2017-08-22T05:26:29.558Z,19.75
2017-08-22T05:27:01.855Z,19.75
2017-08-22T05:27:34.120Z,19.75
2017-08-22T05:28:06.560Z,19.74
2017-08-22T05:28:38.832Z,19.74
2017-08-22T05:29:11.087Z,19.83
2017-08-22T05:29:43.354Z,19.74
2017-08-22T05:30:15.657Z,19.78
2017-08-22T05:30:47.904Z,19.78
2017-08-22T05:31:20.185Z,19.75
2017-08-22T05:31:52.591Z,19.82
2017-08-22T05:32:24.841Z,19.79
2017-08-22T05:32:57.107Z,19.79
2017-08-22T05:33:29.389Z,19.74
2017-08-22T05:34:01.655Z,19.85
2017-08-22T05:34:33.930Z,19.8
2017-08-22T05:35:06.326Z,19.82
2017-08-22T05:35:38.571Z,19.82
2017-08-22T05:36:10.825Z,19.75
2017-08-22T05:36:43.093Z,19.78
2017-08-22T05:37:15.656Z,19.82
2017-08-22T05:37:47.907Z,19.83
2017-08-22T05:38:20.181Z,19.92
2017-08-22T05:38:52.445Z,19.79
2017-08-22T05:39:24.759Z,19.93
2017-08-22T05:39:57.043Z,19.79
2017-08-22T05:40:29.298Z,19.87
2017-08-22T05:41:01.570Z,19.79
2017-08-22T05:41:33.828Z,19.83
2017-08-22T05:42:06.081Z,19.85
2017-08-22T05:42:38.454Z,19.8
2017-08-22T05:43:10.714Z,19.87
2017-08-22T05:43:42.995Z,19.87
2017-08-22T05:44:15.296Z,19.87
2017-08-22T05:44:47.838Z,19.87
2017-08-22T05:45:21.846Z,19.92
2017-08-22T05:45:55.184Z,19.95
2017-08-22T05:46:27.475Z,19.87
2017-08-22T05:46:59.765Z,19.9
2017-08-22T05:47:32.036Z,19.97
2017-08-22T05:48:04.346Z,19.97
2017-08-22T05:48:36.652Z,19.95
2017-08-22T05:49:08.976Z,20
2017-08-22T05:49:41.262Z,19.93
2017-08-22T05:50:13.562Z,19.9
2017-08-22T05:50:45.835Z,19.92
2017-08-22T05:51:18.140Z,20
2017-08-22T05:51:50.447Z,20.02
2017-08-22T05:52:22.759Z,19.97
2017-08-22T05:52:55.037Z,19.97
2017-08-22T05:53:27.337Z,20.07
2017-08-22T05:53:59.679Z,20.01
2017-08-22T05:54:31.970Z,20.05
2017-08-22T05:55:04.268Z,20.07
2017-08-22T05:55:36.560Z,20.08
2017-08-22T05:56:08.860Z,20.07
2017-08-22T05:56:41.170Z,20.08
2017-08-22T05:57:13.511Z,20.1
2017-08-22T05:57:45.810Z,20.08
2017-08-22T05:58:18.140Z,20.1
2017-08-22T05:58:50.450Z,20.12
2017-08-22T05:59:22.730Z,20.2
2017-08-22T05:59:55.024Z,20.2
2017-08-22T06:00:27.331Z,20.19
2017-08-22T06:00:59.614Z,20.12
2017-08-22T06:01:31.917Z,20.16
2017-08-22T06:02:04.213Z,20.16
2017-08-22T06:02:36.529Z,20.19
2017-08-22T06:03:08.832Z,20.19
2017-08-22T06:03:41.081Z,20.18
2017-08-22T06:04:13.341Z,20.15
2017-08-22T06:04:45.652Z,20.16
2017-08-22T06:05:17.989Z,20.2
2017-08-22T06:05:50.235Z,20.34
2017-08-22T06:06:22.509Z,20.3
2017-08-22T06:06:54.772Z,20.27
2017-08-22T06:07:27.056Z,20.2
2017-08-22T06:07:59.473Z,20.25
2017-08-22T06:08:31.751Z,20.23
2017-08-22T06:09:04.012Z,20.27
2017-08-22T06:09:36.325Z,20.25
2017-08-22T06:10:08.689Z,20.19
2017-08-22T06:10:40.936Z,20.38
2017-08-22T06:11:13.244Z,20.4
2017-08-22T06:11:45.762Z,20.37
2017-08-22T06:12:18.185Z,20.34
2017-08-22T06:12:50.571Z,20.38
2017-08-22T06:13:22.845Z,20.46
2017-08-22T06:13:55.125Z,20.46
2017-08-22T06:14:27.158Z,20.42
2017-08-22T06:14:59.466Z,20.4
2017-08-22T06:15:31.775Z,20.48
2017-08-22T06:16:04.052Z,20.51
2017-08-22T06:16:36.389Z,20.54
2017-08-22T06:17:08.768Z,20.48
2017-08-22T06:17:42.014Z,20.51
2017-08-22T06:18:14.359Z,20.53
2017-08-22T06:18:47.681Z,20.58
2017-08-22T06:20:39.542Z,20.6
2017-08-22T06:21:11.847Z,20.6
2017-08-22T06:21:45.020Z,20.6
2017-08-22T06:22:17.353Z,20.64
2017-08-22T06:22:49.625Z,20.64
2017-08-22T06:23:21.924Z,20.68
2017-08-22T06:23:54.236Z,20.72
2017-08-22T06:24:26.522Z,20.75
2017-08-22T06:24:58.815Z,20.67
2017-08-22T06:25:31.116Z,20.71
2017-08-22T06:26:03.386Z,20.74
2017-08-22T06:26:35.676Z,20.75
2017-08-22T06:27:08.055Z,20.85
2017-08-22T06:27:40.854Z,20.74
2017-08-22T06:28:14.222Z,20.82
2017-08-22T06:28:47.734Z,20.81
2017-08-22T06:29:20.004Z,20.91
2017-08-22T06:29:55.090Z,20.82
2017-08-22T06:30:28.611Z,20.76
2017-08-22T06:31:02.316Z,20.86
2017-08-22T06:31:35.787Z,20.9
2017-08-22T06:32:08.444Z,20.93
2017-08-22T06:32:41.182Z,20.91
2017-08-22T06:33:14.782Z,20.9
2017-08-22T06:33:47.082Z,21
2017-08-22T06:34:19.367Z,21.06
2017-08-22T06:34:51.660Z,21
2017-08-22T06:35:23.954Z,21.01
2017-08-22T06:35:56.261Z,21.03
2017-08-22T06:36:28.531Z,20.97
2017-08-22T06:37:01.082Z,21.06
2017-08-22T06:37:34.618Z,20.98
2017-08-22T06:38:07.378Z,20.96
2017-08-22T06:38:39.757Z,20.98
2017-08-22T06:39:12.071Z,21.01
2017-08-22T06:39:44.380Z,21.03
2017-08-22T06:40:16.418Z,21.06
2017-08-22T06:40:48.717Z,21.01
2017-08-22T06:41:21.068Z,21.03
2017-08-22T06:41:53.346Z,21.11
2017-08-22T06:42:25.624Z,21.16
2017-08-22T06:42:57.932Z,21.15
2017-08-22T06:43:30.235Z,21.19
2017-08-22T06:44:02.525Z,21.18
2017-08-22T06:44:34.827Z,21.21
2017-08-22T06:45:07.457Z,21.19
2017-08-22T06:45:40.855Z,21.19
2017-08-22T06:46:13.141Z,21.23
2017-08-22T06:46:45.693Z,21.18
2017-08-22T06:48:37.567Z,21.28
2017-08-22T06:49:09.873Z,21.3
2017-08-22T06:49:42.255Z,21.31
2017-08-22T06:50:14.559Z,21.3
2017-08-22T06:50:46.820Z,21.3
2017-08-22T06:51:19.173Z,21.36
2017-08-22T06:51:52.550Z,21.37
2017-08-22T06:52:24.866Z,21.31
2017-08-22T06:52:57.200Z,21.41
2017-08-22T06:53:29.693Z,21.4
2017-08-22T06:54:01.992Z,21.49
2017-08-22T06:54:34.299Z,21.52
2017-08-22T06:55:06.618Z,21.48
2017-08-22T06:55:38.924Z,21.52
2017-08-22T06:56:11.221Z,21.53
2017-08-22T06:56:44.001Z,21.48
2017-08-22T06:57:16.276Z,21.58
2017-08-22T06:57:48.599Z,21.55
2017-08-22T06:58:20.894Z,21.49
2017-08-22T06:58:53.183Z,21.52
2017-08-22T06:59:25.483Z,21.68
2017-08-22T06:59:57.787Z,21.7
2017-08-22T07:00:30.081Z,21.62
2017-08-22T07:02:21.682Z,21.67
2017-08-22T07:02:54.001Z,21.76
2017-08-22T07:03:26.382Z,21.77
2017-08-22T07:03:58.687Z,21.8
2017-08-22T07:04:31.065Z,21.8